sensor_id;sensor_type;location;lat;lon;timestamp;P1;durP1;ratioP1;P2;durP2;ratioP2
75550;SDS011;65071;53.082;18.218;2023-03-21T00:02:05;2.20;;;1.60;;
75550;SDS011;65071;53.082;18.218;2023-03-21T00:04:32;2.20;;;1.40;;
75550;SDS011;65071;53.082;18.218;2023-03-21T00:06:59;3.10;;;2.20;;
75550;SDS011;65071;53.082;18.218;2023-03-21T00:09:25;8.00;;;4.90;;
75550;SDS011;65071;53.082;18.218;2023-03-21T00:11:52;7.50;;;4.60;;
75550;SDS011;65071;53.082;18.218;2023-03-21T00:14:19;7.20;;;4.80;;
75550;SDS011;65071;53.082;18.218;2023-03-21T00:16:46;6.30;;;3.60;;
75550;SDS011;65071;53.082;18.218;2023-03-21T00:19:16;6.40;;;3.40;;
75550;SDS011;65071;53.082;18.218;2023-03-21T00:21:44;5.40;;;2.70;;
75550;SDS011;65071;53.082;18.218;2023-03-21T00:24:11;4.30;;;2.70;;
75550;SDS011;65071;53.082;18.218;2023-03-21T00:26:38;5.00;;;3.30;;
75550;SDS011;65071;53.082;18.218;2023-03-21T00:29:05;5.30;;;3.50;;
75550;SDS011;65071;53.082;18.218;2023-03-21T00:31:31;7.50;;;3.60;;
75550;SDS011;65071;53.082;18.218;2023-03-21T00:33:59;5.20;;;3.30;;
75550;SDS011;65071;53.082;18.218;2023-03-21T00:36:27;9.00;;;4.00;;
75550;SDS011;65071;53.082;18.218;2023-03-21T00:38:54;6.00;;;3.40;;
75550;SDS011;65071;53.082;18.218;2023-03-21T00:41:20;7.90;;;3.60;;
75550;SDS011;65071;53.082;18.218;2023-03-21T00:43:47;6.20;;;3.70;;
75550;SDS011;65071;53.082;18.218;2023-03-21T00:46:14;8.00;;;4.00;;
75550;SDS011;65071;53.082;18.218;2023-03-21T00:48:41;6.60;;;4.00;;
75550;SDS011;65071;53.082;18.218;2023-03-21T00:51:17;7.10;;;4.10;;
75550;SDS011;65071;53.082;18.218;2023-03-21T00:53:52;5.90;;;3.70;;
75550;SDS011;65071;53.082;18.218;2023-03-21T00:56:20;6.10;;;3.80;;
75550;SDS011;65071;53.082;18.218;2023-03-21T00:58:47;6.20;;;3.90;;
75550;SDS011;65071;53.082;18.218;2023-03-21T01:01:16;6.50;;;4.10;;
75550;SDS011;65071;53.082;18.218;2023-03-21T01:03:42;5.70;;;3.90;;
75550;SDS011;65071;53.082;18.218;2023-03-21T01:06:16;5.50;;;3.40;;
75550;SDS011;65071;53.082;18.218;2023-03-21T01:08:45;5.70;;;3.80;;
75550;SDS011;65071;53.082;18.218;2023-03-21T01:11:15;7.20;;;3.10;;
75550;SDS011;65071;53.082;18.218;2023-03-21T01:13:44;4.40;;;3.10;;
75550;SDS011;65071;53.082;18.218;2023-03-21T01:16:11;5.10;;;3.60;;
75550;SDS011;65071;53.082;18.218;2023-03-21T01:18:39;4.40;;;3.10;;
75550;SDS011;65071;53.082;18.218;2023-03-21T01:21:08;5.50;;;3.30;;
75550;SDS011;65071;53.082;18.218;2023-03-21T01:23:37;6.40;;;3.30;;
75550;SDS011;65071;53.082;18.218;2023-03-21T01:26:07;5.90;;;4.10;;
75550;SDS011;65071;53.082;18.218;2023-03-21T01:28:35;5.60;;;3.80;;
75550;SDS011;65071;53.082;18.218;2023-03-21T01:31:04;6.80;;;3.60;;
75550;SDS011;65071;53.082;18.218;2023-03-21T01:33:32;6.00;;;3.90;;
75550;SDS011;65071;53.082;18.218;2023-03-21T01:35:59;5.80;;;3.40;;
75550;SDS011;65071;53.082;18.218;2023-03-21T01:40:55;4.70;;;3.20;;
75550;SDS011;65071;53.082;18.218;2023-03-21T01:43:30;5.20;;;3.40;;
75550;SDS011;65071;53.082;18.218;2023-03-21T01:48:57;4.80;;;3.50;;
75550;SDS011;65071;53.082;18.218;2023-03-21T01:51:28;6.10;;;3.60;;
75550;SDS011;65071;53.082;18.218;2023-03-21T01:53:58;6.00;;;3.20;;
75550;SDS011;65071;53.082;18.218;2023-03-21T01:56:30;4.30;;;3.10;;
75550;SDS011;65071;53.082;18.218;2023-03-21T01:59:13;4.80;;;3.10;;
75550;SDS011;65071;53.082;18.218;2023-03-21T02:02:06;6.10;;;3.50;;
75550;SDS011;65071;53.082;18.218;2023-03-21T02:04:43;6.40;;;3.80;;
75550;SDS011;65071;53.082;18.218;2023-03-21T02:07:23;6.00;;;3.70;;
75550;SDS011;65071;53.082;18.218;2023-03-21T02:10:00;6.10;;;4.00;;
75550;SDS011;65071;53.082;18.218;2023-03-21T02:12:30;6.20;;;4.10;;
75550;SDS011;65071;53.082;18.218;2023-03-21T02:14:57;6.70;;;4.60;;
75550;SDS011;65071;53.082;18.218;2023-03-21T02:17:39;6.80;;;4.30;;
75550;SDS011;65071;53.082;18.218;2023-03-21T02:23:11;7.60;;;4.60;;
75550;SDS011;65071;53.082;18.218;2023-03-21T02:26:13;8.30;;;4.60;;
75550;SDS011;65071;53.082;18.218;2023-03-21T02:28:44;6.90;;;4.20;;
75550;SDS011;65071;53.082;18.218;2023-03-21T02:37:05;6.90;;;4.30;;
75550;SDS011;65071;53.082;18.218;2023-03-21T02:48:58;9.10;;;5.30;;
75550;SDS011;65071;53.082;18.218;2023-03-21T02:51:26;8.10;;;4.70;;
75550;SDS011;65071;53.082;18.218;2023-03-21T02:54:00;8.20;;;5.30;;
75550;SDS011;65071;53.082;18.218;2023-03-21T02:56:31;9.60;;;5.20;;
75550;SDS011;65071;53.082;18.218;2023-03-21T02:58:59;8.90;;;6.10;;
75550;SDS011;65071;53.082;18.218;2023-03-21T03:01:26;9.30;;;5.50;;
75550;SDS011;65071;53.082;18.218;2023-03-21T03:03:54;9.60;;;5.50;;
75550;SDS011;65071;53.082;18.218;2023-03-21T03:06:22;7.50;;;5.00;;
75550;SDS011;65071;53.082;18.218;2023-03-21T03:11:47;8.80;;;5.70;;
75550;SDS011;65071;53.082;18.218;2023-03-21T03:14:34;8.10;;;5.80;;
75550;SDS011;65071;53.082;18.218;2023-03-21T03:17:37;7.70;;;5.00;;
75550;SDS011;65071;53.082;18.218;2023-03-21T03:23:18;9.50;;;5.70;;
75550;SDS011;65071;53.082;18.218;2023-03-21T03:25:55;7.30;;;5.10;;
75550;SDS011;65071;53.082;18.218;2023-03-21T03:28:39;5.80;;;4.30;;
75550;SDS011;65071;53.082;18.218;2023-03-21T03:31:13;8.70;;;5.80;;
75550;SDS011;65071;53.082;18.218;2023-03-21T03:33:51;9.00;;;6.20;;
75550;SDS011;65071;53.082;18.218;2023-03-21T03:36:23;9.00;;;5.60;;
75550;SDS011;65071;53.082;18.218;2023-03-21T03:38:54;8.90;;;5.60;;
75550;SDS011;65071;53.082;18.218;2023-03-21T03:41:24;7.30;;;4.70;;
75550;SDS011;65071;53.082;18.218;2023-03-21T03:43:57;9.00;;;5.40;;
75550;SDS011;65071;53.082;18.218;2023-03-21T03:46:35;9.20;;;5.10;;
75550;SDS011;65071;53.082;18.218;2023-03-21T03:49:19;7.70;;;5.30;;
75550;SDS011;65071;53.082;18.218;2023-03-21T03:51:59;9.90;;;5.40;;
75550;SDS011;65071;53.082;18.218;2023-03-21T03:54:42;9.30;;;5.10;;
75550;SDS011;65071;53.082;18.218;2023-03-21T03:57:11;10.00;;;5.50;;
75550;SDS011;65071;53.082;18.218;2023-03-21T03:59:40;8.00;;;5.20;;
75550;SDS011;65071;53.082;18.218;2023-03-21T04:02:37;9.10;;;6.00;;
75550;SDS011;65071;53.082;18.218;2023-03-21T04:05:04;10.30;;;5.80;;
75550;SDS011;65071;53.082;18.218;2023-03-21T04:07:31;9.90;;;6.20;;
75550;SDS011;65071;53.082;18.218;2023-03-21T04:09:59;10.60;;;5.30;;
75550;SDS011;65071;53.082;18.218;2023-03-21T04:12:26;8.70;;;5.80;;
75550;SDS011;65071;53.082;18.218;2023-03-21T04:15:19;11.60;;;6.60;;
75550;SDS011;65071;53.082;18.218;2023-03-21T04:17:50;8.90;;;5.30;;
75550;SDS011;65071;53.082;18.218;2023-03-21T04:20:17;9.80;;;5.50;;
75550;SDS011;65071;53.082;18.218;2023-03-21T04:22:45;9.50;;;5.80;;
75550;SDS011;65071;53.082;18.218;2023-03-21T04:25:12;9.90;;;6.20;;
75550;SDS011;65071;53.082;18.218;2023-03-21T04:27:39;9.30;;;5.50;;
75550;SDS011;65071;53.082;18.218;2023-03-21T04:30:26;11.20;;;6.10;;
75550;SDS011;65071;53.082;18.218;2023-03-21T04:33:07;8.00;;;4.90;;
75550;SDS011;65071;53.082;18.218;2023-03-21T04:35:33;11.00;;;5.50;;
75550;SDS011;65071;53.082;18.218;2023-03-21T04:38:01;10.40;;;4.90;;
75550;SDS011;65071;53.082;18.218;2023-03-21T04:40:28;10.20;;;5.50;;
75550;SDS011;65071;53.082;18.218;2023-03-21T04:42:55;7.40;;;3.90;;
75550;SDS011;65071;53.082;18.218;2023-03-21T04:45:22;9.50;;;5.70;;
75550;SDS011;65071;53.082;18.218;2023-03-21T04:47:49;9.50;;;5.20;;
75550;SDS011;65071;53.082;18.218;2023-03-21T04:50:15;11.10;;;6.20;;
75550;SDS011;65071;53.082;18.218;2023-03-21T04:52:42;9.40;;;4.60;;
75550;SDS011;65071;53.082;18.218;2023-03-21T04:55:09;10.40;;;5.70;;
75550;SDS011;65071;53.082;18.218;2023-03-21T04:57:36;11.80;;;6.00;;
75550;SDS011;65071;53.082;18.218;2023-03-21T05:00:04;9.80;;;5.70;;
75550;SDS011;65071;53.082;18.218;2023-03-21T05:02:36;12.70;;;6.30;;
75550;SDS011;65071;53.082;18.218;2023-03-21T05:05:03;10.60;;;6.20;;
75550;SDS011;65071;53.082;18.218;2023-03-21T05:07:30;9.40;;;5.90;;
75550;SDS011;65071;53.082;18.218;2023-03-21T05:09:58;10.10;;;6.20;;
75550;SDS011;65071;53.082;18.218;2023-03-21T05:12:25;10.30;;;5.70;;
75550;SDS011;65071;53.082;18.218;2023-03-21T05:14:51;13.20;;;6.10;;
75550;SDS011;65071;53.082;18.218;2023-03-21T05:17:18;11.80;;;5.70;;
75550;SDS011;65071;53.082;18.218;2023-03-21T05:19:50;12.30;;;6.50;;
75550;SDS011;65071;53.082;18.218;2023-03-21T05:22:18;13.90;;;6.70;;
75550;SDS011;65071;53.082;18.218;2023-03-21T05:24:45;13.10;;;7.20;;
75550;SDS011;65071;53.082;18.218;2023-03-21T05:27:20;14.60;;;7.80;;
75550;SDS011;65071;53.082;18.218;2023-03-21T05:32:33;13.80;;;7.00;;
75550;SDS011;65071;53.082;18.218;2023-03-21T05:35:00;13.90;;;7.10;;
75550;SDS011;65071;53.082;18.218;2023-03-21T05:37:27;10.70;;;6.00;;
75550;SDS011;65071;53.082;18.218;2023-03-21T05:39:54;13.90;;;7.40;;
75550;SDS011;65071;53.082;18.218;2023-03-21T05:42:25;13.50;;;7.30;;
75550;SDS011;65071;53.082;18.218;2023-03-21T05:44:52;13.90;;;7.20;;
75550;SDS011;65071;53.082;18.218;2023-03-21T05:47:23;14.10;;;7.90;;
75550;SDS011;65071;53.082;18.218;2023-03-21T05:49:50;15.00;;;7.60;;
75550;SDS011;65071;53.082;18.218;2023-03-21T05:52:17;13.10;;;7.60;;
75550;SDS011;65071;53.082;18.218;2023-03-21T05:54:45;15.00;;;7.80;;
75550;SDS011;65071;53.082;18.218;2023-03-21T05:57:12;14.60;;;7.50;;
75550;SDS011;65071;53.082;18.218;2023-03-21T06:00:05;15.00;;;7.70;;
75550;SDS011;65071;53.082;18.218;2023-03-21T06:02:42;14.00;;;7.90;;
75550;SDS011;65071;53.082;18.218;2023-03-21T06:05:23;14.90;;;7.70;;
75550;SDS011;65071;53.082;18.218;2023-03-21T06:07:50;12.30;;;7.00;;
75550;SDS011;65071;53.082;18.218;2023-03-21T06:10:17;14.40;;;8.20;;
75550;SDS011;65071;53.082;18.218;2023-03-21T06:12:45;12.10;;;6.60;;
75550;SDS011;65071;53.082;18.218;2023-03-21T06:15:26;14.40;;;7.60;;
75550;SDS011;65071;53.082;18.218;2023-03-21T06:17:58;14.70;;;8.00;;
75550;SDS011;65071;53.082;18.218;2023-03-21T06:20:25;14.40;;;7.90;;
75550;SDS011;65071;53.082;18.218;2023-03-21T06:22:54;9.80;;;6.20;;
75550;SDS011;65071;53.082;18.218;2023-03-21T06:25:21;10.10;;;6.50;;
75550;SDS011;65071;53.082;18.218;2023-03-21T06:27:49;11.10;;;6.80;;
75550;SDS011;65071;53.082;18.218;2023-03-21T06:30:17;13.80;;;7.90;;
75550;SDS011;65071;53.082;18.218;2023-03-21T06:33:01;12.70;;;7.30;;
75550;SDS011;65071;53.082;18.218;2023-03-21T06:35:28;9.30;;;5.20;;
75550;SDS011;65071;53.082;18.218;2023-03-21T06:37:55;11.10;;;6.70;;
75550;SDS011;65071;53.082;18.218;2023-03-21T06:42:51;10.80;;;6.20;;
75550;SDS011;65071;53.082;18.218;2023-03-21T06:45:18;11.70;;;6.30;;
75550;SDS011;65071;53.082;18.218;2023-03-21T06:47:45;10.20;;;5.60;;
75550;SDS011;65071;53.082;18.218;2023-03-21T06:50:22;7.50;;;4.80;;
75550;SDS011;65071;53.082;18.218;2023-03-21T06:52:49;10.20;;;6.00;;
75550;SDS011;65071;53.082;18.218;2023-03-21T06:55:16;11.90;;;5.60;;
75550;SDS011;65071;53.082;18.218;2023-03-21T06:57:45;9.70;;;6.40;;
75550;SDS011;65071;53.082;18.218;2023-03-21T07:00:12;10.80;;;5.60;;
75550;SDS011;65071;53.082;18.218;2023-03-21T07:02:42;9.20;;;5.20;;
75550;SDS011;65071;53.082;18.218;2023-03-21T07:05:14;9.20;;;6.00;;
75550;SDS011;65071;53.082;18.218;2023-03-21T07:07:41;7.00;;;3.80;;
75550;SDS011;65071;53.082;18.218;2023-03-21T07:10:08;8.50;;;5.50;;
75550;SDS011;65071;53.082;18.218;2023-03-21T07:12:59;10.20;;;5.80;;
75550;SDS011;65071;53.082;18.218;2023-03-21T07:15:37;12.10;;;6.70;;
75550;SDS011;65071;53.082;18.218;2023-03-21T07:18:04;11.20;;;5.10;;
75550;SDS011;65071;53.082;18.218;2023-03-21T07:20:32;17.10;;;7.80;;
75550;SDS011;65071;53.082;18.218;2023-03-21T07:22:59;11.10;;;5.80;;
75550;SDS011;65071;53.082;18.218;2023-03-21T07:25:26;8.80;;;5.60;;
75550;SDS011;65071;53.082;18.218;2023-03-21T07:27:54;7.40;;;4.80;;
75550;SDS011;65071;53.082;18.218;2023-03-21T07:30:22;9.10;;;5.50;;
75550;SDS011;65071;53.082;18.218;2023-03-21T07:32:48;6.40;;;3.60;;
75550;SDS011;65071;53.082;18.218;2023-03-21T07:35:16;6.60;;;4.00;;
75550;SDS011;65071;53.082;18.218;2023-03-21T07:37:43;4.90;;;3.00;;
75550;SDS011;65071;53.082;18.218;2023-03-21T07:40:12;10.20;;;5.40;;
75550;SDS011;65071;53.082;18.218;2023-03-21T07:42:39;8.90;;;5.40;;
75550;SDS011;65071;53.082;18.218;2023-03-21T07:45:08;6.70;;;4.50;;
75550;SDS011;65071;53.082;18.218;2023-03-21T07:47:36;12.20;;;6.40;;
75550;SDS011;65071;53.082;18.218;2023-03-21T07:50:02;17.50;;;8.70;;
75550;SDS011;65071;53.082;18.218;2023-03-21T07:52:32;6.80;;;3.80;;
75550;SDS011;65071;53.082;18.218;2023-03-21T07:55:00;5.80;;;3.70;;
75550;SDS011;65071;53.082;18.218;2023-03-21T07:57:26;5.20;;;3.10;;
75550;SDS011;65071;53.082;18.218;2023-03-21T07:59:53;4.50;;;3.40;;
75550;SDS011;65071;53.082;18.218;2023-03-21T08:02:20;6.20;;;3.60;;
75550;SDS011;65071;53.082;18.218;2023-03-21T08:04:46;6.40;;;3.50;;
75550;SDS011;65071;53.082;18.218;2023-03-21T08:07:13;5.00;;;3.00;;
75550;SDS011;65071;53.082;18.218;2023-03-21T08:09:41;5.30;;;3.40;;
75550;SDS011;65071;53.082;18.218;2023-03-21T08:12:09;5.60;;;3.80;;
75550;SDS011;65071;53.082;18.218;2023-03-21T08:14:36;6.20;;;3.70;;
75550;SDS011;65071;53.082;18.218;2023-03-21T08:17:03;6.10;;;4.30;;
75550;SDS011;65071;53.082;18.218;2023-03-21T08:19:30;5.00;;;3.40;;
75550;SDS011;65071;53.082;18.218;2023-03-21T08:21:57;8.10;;;4.70;;
75550;SDS011;65071;53.082;18.218;2023-03-21T08:24:27;6.20;;;3.70;;
75550;SDS011;65071;53.082;18.218;2023-03-21T08:26:54;6.10;;;3.20;;
75550;SDS011;65071;53.082;18.218;2023-03-21T08:29:21;5.50;;;3.20;;
75550;SDS011;65071;53.082;18.218;2023-03-21T08:31:48;4.70;;;2.90;;
75550;SDS011;65071;53.082;18.218;2023-03-21T08:34:14;7.80;;;4.40;;
75550;SDS011;65071;53.082;18.218;2023-03-21T08:36:43;6.80;;;4.00;;
75550;SDS011;65071;53.082;18.218;2023-03-21T08:39:09;6.90;;;4.10;;
75550;SDS011;65071;53.082;18.218;2023-03-21T08:41:36;5.90;;;4.10;;
75550;SDS011;65071;53.082;18.218;2023-03-21T08:44:04;5.00;;;2.60;;
75550;SDS011;65071;53.082;18.218;2023-03-21T08:46:31;4.30;;;3.10;;
75550;SDS011;65071;53.082;18.218;2023-03-21T08:48:58;6.40;;;3.30;;
75550;SDS011;65071;53.082;18.218;2023-03-21T08:51:25;3.80;;;2.60;;
75550;SDS011;65071;53.082;18.218;2023-03-21T08:53:51;5.50;;;3.30;;
75550;SDS011;65071;53.082;18.218;2023-03-21T08:56:18;3.70;;;2.50;;
75550;SDS011;65071;53.082;18.218;2023-03-21T08:58:45;3.20;;;2.20;;
75550;SDS011;65071;53.082;18.218;2023-03-21T09:01:12;3.10;;;2.10;;
75550;SDS011;65071;53.082;18.218;2023-03-21T09:03:41;2.70;;;2.00;;
75550;SDS011;65071;53.082;18.218;2023-03-21T09:06:08;2.40;;;1.70;;
75550;SDS011;65071;53.082;18.218;2023-03-21T09:08:36;2.00;;;1.50;;
75550;SDS011;65071;53.082;18.218;2023-03-21T09:11:03;1.60;;;1.10;;
75550;SDS011;65071;53.082;18.218;2023-03-21T09:13:30;1.70;;;1.30;;
75550;SDS011;65071;53.082;18.218;2023-03-21T09:15:57;2.00;;;1.60;;
75550;SDS011;65071;53.082;18.218;2023-03-21T09:18:26;1.40;;;1.30;;
75550;SDS011;65071;53.082;18.218;2023-03-21T09:21:12;2.00;;;1.30;;
75550;SDS011;65071;53.082;18.218;2023-03-21T09:23:41;1.50;;;1.40;;
75550;SDS011;65071;53.082;18.218;2023-03-21T09:26:10;1.60;;;1.30;;
75550;SDS011;65071;53.082;18.218;2023-03-21T09:28:37;1.50;;;1.10;;
75550;SDS011;65071;53.082;18.218;2023-03-21T09:31:06;1.30;;;1.00;;
75550;SDS011;65071;53.082;18.218;2023-03-21T09:33:34;1.50;;;1.20;;
75550;SDS011;65071;53.082;18.218;2023-03-21T09:36:01;1.10;;;1.00;;
75550;SDS011;65071;53.082;18.218;2023-03-21T09:38:28;2.20;;;1.40;;
75550;SDS011;65071;53.082;18.218;2023-03-21T09:41:16;2.40;;;1.20;;
75550;SDS011;65071;53.082;18.218;2023-03-21T09:43:58;1.50;;;1.30;;
75550;SDS011;65071;53.082;18.218;2023-03-21T09:49:14;2.60;;;1.60;;
75550;SDS011;65071;53.082;18.218;2023-03-21T09:51:44;1.90;;;1.30;;
75550;SDS011;65071;53.082;18.218;2023-03-21T09:54:20;2.70;;;1.70;;
75550;SDS011;65071;53.082;18.218;2023-03-21T09:56:54;3.20;;;1.60;;
75550;SDS011;65071;53.082;18.218;2023-03-21T10:02:08;2.90;;;2.00;;
75550;SDS011;65071;53.082;18.218;2023-03-21T10:04:47;4.10;;;2.20;;
75550;SDS011;65071;53.082;18.218;2023-03-21T10:07:13;3.00;;;2.30;;
75550;SDS011;65071;53.082;18.218;2023-03-21T10:09:43;2.90;;;2.30;;
75550;SDS011;65071;53.082;18.218;2023-03-21T10:12:19;2.70;;;2.00;;
75550;SDS011;65071;53.082;18.218;2023-03-21T10:14:48;2.60;;;1.70;;
75550;SDS011;65071;53.082;18.218;2023-03-21T10:17:30;3.30;;;2.20;;
75550;SDS011;65071;53.082;18.218;2023-03-21T10:22:47;2.80;;;2.20;;
75550;SDS011;65071;53.082;18.218;2023-03-21T10:25:18;3.00;;;1.90;;
75550;SDS011;65071;53.082;18.218;2023-03-21T10:27:47;3.20;;;2.00;;
75550;SDS011;65071;53.082;18.218;2023-03-21T10:30:19;2.90;;;1.70;;
75550;SDS011;65071;53.082;18.218;2023-03-21T10:32:51;2.60;;;1.90;;
75550;SDS011;65071;53.082;18.218;2023-03-21T10:35:22;2.70;;;1.80;;
75550;SDS011;65071;53.082;18.218;2023-03-21T10:37:48;2.60;;;1.80;;
75550;SDS011;65071;53.082;18.218;2023-03-21T10:40:16;2.20;;;1.80;;
75550;SDS011;65071;53.082;18.218;2023-03-21T10:42:43;2.30;;;1.50;;
75550;SDS011;65071;53.082;18.218;2023-03-21T10:45:14;2.50;;;1.50;;
75550;SDS011;65071;53.082;18.218;2023-03-21T10:47:48;1.80;;;1.50;;
75550;SDS011;65071;53.082;18.218;2023-03-21T10:50:17;2.60;;;1.90;;
75550;SDS011;65071;53.082;18.218;2023-03-21T10:52:52;5.50;;;2.10;;
75550;SDS011;65071;53.082;18.218;2023-03-21T10:55:26;2.20;;;1.70;;
75550;SDS011;65071;53.082;18.218;2023-03-21T10:57:55;2.00;;;1.40;;
75550;SDS011;65071;53.082;18.218;2023-03-21T11:00:29;1.90;;;1.70;;
75550;SDS011;65071;53.082;18.218;2023-03-21T11:03:01;2.10;;;1.70;;
75550;SDS011;65071;53.082;18.218;2023-03-21T11:05:33;2.30;;;1.70;;
75550;SDS011;65071;53.082;18.218;2023-03-21T11:10:33;1.80;;;1.40;;
75550;SDS011;65071;53.082;18.218;2023-03-21T11:13:06;1.40;;;1.20;;
75550;SDS011;65071;53.082;18.218;2023-03-21T11:15:51;1.90;;;1.30;;
75550;SDS011;65071;53.082;18.218;2023-03-21T11:18:21;1.50;;;1.20;;
75550;SDS011;65071;53.082;18.218;2023-03-21T11:20:52;1.80;;;1.30;;
75550;SDS011;65071;53.082;18.218;2023-03-21T11:23:19;2.00;;;1.40;;
75550;SDS011;65071;53.082;18.218;2023-03-21T11:25:48;1.80;;;1.60;;
75550;SDS011;65071;53.082;18.218;2023-03-21T11:28:17;2.70;;;1.80;;
75550;SDS011;65071;53.082;18.218;2023-03-21T11:30:48;1.40;;;1.30;;
75550;SDS011;65071;53.082;18.218;2023-03-21T11:33:36;1.20;;;1.10;;
75550;SDS011;65071;53.082;18.218;2023-03-21T11:38:47;2.40;;;1.60;;
75550;SDS011;65071;53.082;18.218;2023-03-21T11:41:22;2.40;;;1.50;;
75550;SDS011;65071;53.082;18.218;2023-03-21T11:43:54;2.60;;;2.10;;
75550;SDS011;65071;53.082;18.218;2023-03-21T11:46:22;1.60;;;1.10;;
75550;SDS011;65071;53.082;18.218;2023-03-21T11:48:51;2.60;;;1.50;;
75550;SDS011;65071;53.082;18.218;2023-03-21T11:56:55;2.10;;;1.60;;
75550;SDS011;65071;53.082;18.218;2023-03-21T12:02:13;2.20;;;1.90;;
75550;SDS011;65071;53.082;18.218;2023-03-21T12:10:41;2.40;;;1.80;;
75550;SDS011;65071;53.082;18.218;2023-03-21T12:16:13;3.50;;;2.00;;
75550;SDS011;65071;53.082;18.218;2023-03-21T12:24:21;1.80;;;1.40;;
75550;SDS011;65071;53.082;18.218;2023-03-21T12:38:25;2.90;;;1.70;;
75550;SDS011;65071;53.082;18.218;2023-03-21T12:44:02;1.60;;;1.10;;
75550;SDS011;65071;53.082;18.218;2023-03-21T12:49:17;2.20;;;1.20;;
75550;SDS011;65071;53.082;18.218;2023-03-21T12:52:08;1.60;;;1.50;;
75550;SDS011;65071;53.082;18.218;2023-03-21T12:54:42;1.60;;;1.20;;
75550;SDS011;65071;53.082;18.218;2023-03-21T12:57:25;1.40;;;1.30;;
75550;SDS011;65071;53.082;18.218;2023-03-21T13:02:40;3.20;;;1.80;;
75550;SDS011;65071;53.082;18.218;2023-03-21T13:10:39;4.20;;;2.30;;
75550;SDS011;65071;53.082;18.218;2023-03-21T13:21:04;3.40;;;2.10;;
75550;SDS011;65071;53.082;18.218;2023-03-21T13:23:53;3.10;;;1.80;;
75550;SDS011;65071;53.082;18.218;2023-03-21T13:26:40;2.50;;;1.70;;
75550;SDS011;65071;53.082;18.218;2023-03-21T13:29:20;2.20;;;1.40;;
75550;SDS011;65071;53.082;18.218;2023-03-21T13:31:50;2.70;;;1.80;;
75550;SDS011;65071;53.082;18.218;2023-03-21T13:34:20;3.30;;;1.70;;
75550;SDS011;65071;53.082;18.218;2023-03-21T13:36:49;2.50;;;1.80;;
75550;SDS011;65071;53.082;18.218;2023-03-21T13:39:23;2.40;;;1.60;;
75550;SDS011;65071;53.082;18.218;2023-03-21T13:41:52;2.00;;;1.40;;
75550;SDS011;65071;53.082;18.218;2023-03-21T13:47:22;4.40;;;3.40;;
75550;SDS011;65071;53.082;18.218;2023-03-21T13:55:40;4.10;;;1.40;;
75550;SDS011;65071;53.082;18.218;2023-03-21T14:03:46;2.60;;;1.50;;
75550;SDS011;65071;53.082;18.218;2023-03-21T14:06:14;2.50;;;1.70;;
75550;SDS011;65071;53.082;18.218;2023-03-21T14:08:43;4.20;;;2.70;;
75550;SDS011;65071;53.082;18.218;2023-03-21T14:11:14;1.90;;;1.30;;
75550;SDS011;65071;53.082;18.218;2023-03-21T14:13:44;1.90;;;1.60;;
75550;SDS011;65071;53.082;18.218;2023-03-21T14:16:13;2.70;;;1.80;;
75550;SDS011;65071;53.082;18.218;2023-03-21T14:18:43;4.50;;;2.20;;
75550;SDS011;65071;53.082;18.218;2023-03-21T14:21:25;4.30;;;1.50;;
75550;SDS011;65071;53.082;18.218;2023-03-21T14:23:58;2.40;;;1.40;;
75550;SDS011;65071;53.082;18.218;2023-03-21T14:26:28;1.70;;;1.60;;
75550;SDS011;65071;53.082;18.218;2023-03-21T14:28:58;2.20;;;1.70;;
75550;SDS011;65071;53.082;18.218;2023-03-21T14:31:26;1.70;;;1.30;;
75550;SDS011;65071;53.082;18.218;2023-03-21T14:33:55;8.90;;;5.40;;
75550;SDS011;65071;53.082;18.218;2023-03-21T14:36:25;27.10;;;12.10;;
75550;SDS011;65071;53.082;18.218;2023-03-21T14:41:50;6.40;;;3.10;;
75550;SDS011;65071;53.082;18.218;2023-03-21T14:44:20;12.10;;;8.90;;
75550;SDS011;65071;53.082;18.218;2023-03-21T14:47:07;1.90;;;1.70;;
75550;SDS011;65071;53.082;18.218;2023-03-21T14:49:42;6.70;;;4.50;;
75550;SDS011;65071;53.082;18.218;2023-03-21T14:52:13;4.20;;;3.00;;
75550;SDS011;65071;53.082;18.218;2023-03-21T14:54:45;2.20;;;1.80;;
75550;SDS011;65071;53.082;18.218;2023-03-21T14:57:14;10.60;;;8.60;;
75550;SDS011;65071;53.082;18.218;2023-03-21T14:59:46;3.60;;;2.30;;
75550;SDS011;65071;53.082;18.218;2023-03-21T15:02:22;2.40;;;1.90;;
75550;SDS011;65071;53.082;18.218;2023-03-21T15:04:53;2.10;;;1.40;;
75550;SDS011;65071;53.082;18.218;2023-03-21T15:07:27;2.30;;;1.80;;
75550;SDS011;65071;53.082;18.218;2023-03-21T15:10:03;2.40;;;1.70;;
75550;SDS011;65071;53.082;18.218;2023-03-21T15:12:31;1.30;;;1.10;;
75550;SDS011;65071;53.082;18.218;2023-03-21T15:14:59;1.80;;;1.30;;
75550;SDS011;65071;53.082;18.218;2023-03-21T15:17:27;3.00;;;1.30;;
75550;SDS011;65071;53.082;18.218;2023-03-21T15:19:54;1.50;;;1.10;;
75550;SDS011;65071;53.082;18.218;2023-03-21T15:25:05;1.80;;;1.30;;
75550;SDS011;65071;53.082;18.218;2023-03-21T15:27:36;3.30;;;1.70;;
75550;SDS011;65071;53.082;18.218;2023-03-21T15:30:06;1.60;;;1.10;;
75550;SDS011;65071;53.082;18.218;2023-03-21T15:32:43;2.90;;;1.40;;
75550;SDS011;65071;53.082;18.218;2023-03-21T15:35:12;3.10;;;1.40;;
75550;SDS011;65071;53.082;18.218;2023-03-21T15:37:42;2.00;;;1.50;;
75550;SDS011;65071;53.082;18.218;2023-03-21T15:40:19;5.10;;;4.60;;
75550;SDS011;65071;53.082;18.218;2023-03-21T15:42:48;6.70;;;5.60;;
75550;SDS011;65071;53.082;18.218;2023-03-21T15:47:53;3.70;;;3.00;;
75550;SDS011;65071;53.082;18.218;2023-03-21T15:50:37;5.50;;;3.50;;
75550;SDS011;65071;53.082;18.218;2023-03-21T15:53:10;1.80;;;1.20;;
75550;SDS011;65071;53.082;18.218;2023-03-21T15:55:42;4.30;;;2.90;;
75550;SDS011;65071;53.082;18.218;2023-03-21T15:58:18;10.10;;;5.60;;
75550;SDS011;65071;53.082;18.218;2023-03-21T16:00:50;3.70;;;2.10;;
75550;SDS011;65071;53.082;18.218;2023-03-21T16:03:27;5.50;;;2.70;;
75550;SDS011;65071;53.082;18.218;2023-03-21T16:06:01;4.20;;;2.20;;
75550;SDS011;65071;53.082;18.218;2023-03-21T16:08:37;4.00;;;2.40;;
75550;SDS011;65071;53.082;18.218;2023-03-21T16:13:48;6.20;;;3.10;;
75550;SDS011;65071;53.082;18.218;2023-03-21T16:16:27;4.80;;;2.80;;
75550;SDS011;65071;53.082;18.218;2023-03-21T16:18:55;3.50;;;2.10;;
75550;SDS011;65071;53.082;18.218;2023-03-21T16:21:24;3.70;;;2.20;;
75550;SDS011;65071;53.082;18.218;2023-03-21T16:23:56;3.80;;;2.40;;
75550;SDS011;65071;53.082;18.218;2023-03-21T16:26:28;2.00;;;1.70;;
75550;SDS011;65071;53.082;18.218;2023-03-21T16:28:57;3.40;;;2.30;;
75550;SDS011;65071;53.082;18.218;2023-03-21T16:31:25;2.80;;;2.00;;
75550;SDS011;65071;53.082;18.218;2023-03-21T16:33:54;2.40;;;1.60;;
75550;SDS011;65071;53.082;18.218;2023-03-21T16:36:23;2.90;;;2.20;;
75550;SDS011;65071;53.082;18.218;2023-03-21T16:38:52;3.20;;;2.20;;
75550;SDS011;65071;53.082;18.218;2023-03-21T16:41:21;3.20;;;2.50;;
75550;SDS011;65071;53.082;18.218;2023-03-21T16:43:49;5.00;;;2.90;;
75550;SDS011;65071;53.082;18.218;2023-03-21T16:46:19;4.70;;;2.90;;
75550;SDS011;65071;53.082;18.218;2023-03-21T16:48:49;4.80;;;3.00;;
75550;SDS011;65071;53.082;18.218;2023-03-21T16:51:19;3.90;;;2.80;;
75550;SDS011;65071;53.082;18.218;2023-03-21T16:53:48;4.60;;;2.70;;
75550;SDS011;65071;53.082;18.218;2023-03-21T16:56:19;4.10;;;2.70;;
75550;SDS011;65071;53.082;18.218;2023-03-21T16:58:49;4.00;;;2.50;;
75550;SDS011;65071;53.082;18.218;2023-03-21T17:01:17;4.20;;;2.90;;
75550;SDS011;65071;53.082;18.218;2023-03-21T17:03:46;4.10;;;2.80;;
75550;SDS011;65071;53.082;18.218;2023-03-21T17:06:14;5.00;;;3.00;;